createdAt,value
2022-12-15T00:01:01.119Z,9.36
2022-12-15T00:02:22.460Z,8.17
2022-12-15T00:03:44.351Z,8.32
2022-12-15T00:05:06.045Z,9.07
2022-12-15T00:06:27.529Z,8.07
2022-12-15T00:07:48.983Z,8.79
2022-12-15T00:09:14.189Z,8.96
2022-12-15T00:10:33.948Z,8.89
2022-12-15T00:11:55.482Z,8.39
2022-12-15T00:13:16.636Z,8.91
2022-12-15T00:14:37.764Z,8.17
2022-12-15T00:15:59.582Z,9.02
2022-12-15T00:17:21.053Z,9.27
2022-12-15T00:18:42.148Z,8.26
2022-12-15T00:20:04.268Z,9.17
2022-12-15T00:21:25.327Z,9.06
2022-12-15T00:22:46.646Z,9.29
2022-12-15T00:24:08.365Z,8.96
2022-12-15T00:25:29.675Z,10.79
2022-12-15T00:26:51.672Z,9.05
2022-12-15T00:28:13.405Z,8.95
2022-12-15T00:29:34.876Z,8.26
2022-12-15T00:31:02.315Z,8.86
2022-12-15T00:32:21.662Z,8.98
2022-12-15T00:33:42.841Z,9.34
2022-12-15T00:35:04.704Z,8.43
2022-12-15T00:36:26.119Z,8.16
2022-12-15T00:37:47.202Z,9.07
2022-12-15T00:39:08.760Z,8.82
2022-12-15T00:40:30.543Z,8.34
2022-12-15T00:41:51.854Z,8.30
2022-12-15T00:43:13.458Z,7.54
2022-12-15T00:44:35.025Z,8.44
2022-12-15T00:45:56.401Z,9.29
2022-12-15T00:47:17.407Z,8.19
2022-12-15T00:48:39.624Z,8.31
2022-12-15T00:50:00.889Z,8.22
2022-12-15T00:51:23.297Z,8.51
2022-12-15T00:52:44.373Z,7.52
2022-12-15T00:54:05.933Z,8.42
2022-12-15T00:55:27.462Z,9.38
2022-12-15T00:56:48.809Z,7.48
2022-12-15T00:58:10.023Z,8.78
2022-12-15T00:59:31.656Z,10.93
2022-12-15T01:00:53.005Z,10.45
2022-12-15T01:02:14.350Z,9.48
2022-12-15T01:03:36.251Z,8.44
2022-12-15T01:04:58.300Z,8.63
2022-12-15T01:06:19.671Z,8.58
2022-12-15T01:07:40.904Z,8.81
2022-12-15T01:09:03.015Z,7.51
2022-12-15T01:10:24.415Z,7.93
2022-12-15T01:11:45.669Z,8.12
2022-12-15T01:13:07.185Z,8.92
2022-12-15T01:14:28.507Z,9.51
2022-12-15T01:15:49.610Z,9.42
2022-12-15T01:17:10.935Z,8.17
2022-12-15T01:18:34.384Z,8.54
2022-12-15T01:19:55.783Z,8.52
2022-12-15T01:21:17.277Z,8.81
2022-12-15T01:22:38.956Z,8.69
2022-12-15T01:24:00.214Z,9.83
2022-12-15T01:25:23.061Z,10.68
2022-12-15T01:26:44.398Z,9.97
2022-12-15T01:28:05.933Z,15.26
2022-12-15T01:29:27.291Z,13.93
2022-12-15T01:30:48.785Z,12.18
2022-12-15T01:32:10.008Z,11.87
2022-12-15T01:33:32.041Z,11.64
2022-12-15T01:34:53.851Z,12.39
2022-12-15T01:36:15.073Z,9.46
2022-12-15T01:37:36.401Z,11.46
2022-12-15T01:38:57.796Z,18.72
2022-12-15T01:40:19.524Z,19.36
2022-12-15T01:41:40.668Z,15.51
2022-12-15T01:43:02.650Z,12.07
2022-12-15T01:44:24.115Z,14.04
2022-12-15T01:47:04.766Z,10.83
2022-12-15T01:48:46.902Z,14.56
2022-12-15T01:50:11.388Z,11.20
2022-12-15T01:51:38.612Z,9.43
2022-12-15T01:53:00.267Z,9.14
2022-12-15T01:54:24.592Z,9.59
2022-12-15T01:55:47.941Z,8.36
2022-12-15T01:57:12.443Z,8.21
2022-12-15T01:58:34.323Z,10.21
2022-12-15T01:59:58.040Z,8.56
2022-12-15T02:01:19.118Z,8.12
2022-12-15T02:02:40.902Z,7.76
2022-12-15T02:04:02.491Z,7.64
2022-12-15T02:05:24.017Z,8.76
2022-12-15T02:06:45.590Z,7.72
2022-12-15T02:08:06.743Z,8.99
2022-12-15T02:09:28.391Z,8.94
2022-12-15T02:11:10.380Z,8.37
2022-12-15T02:12:47.585Z,7.43
2022-12-15T02:14:10.126Z,6.97
2022-12-15T02:15:49.324Z,5.64
2022-12-15T02:17:17.179Z,7.17
2022-12-15T02:20:27.540Z,7.84
2022-12-15T02:21:55.556Z,7.78
2022-12-15T02:23:35.575Z,8.45
2022-12-15T02:25:09.415Z,8.71
2022-12-15T02:27:08.096Z,9.17
2022-12-15T02:28:49.339Z,8.69
2022-12-15T02:30:14.433Z,8.84
2022-12-15T02:31:54.108Z,9.19
2022-12-15T02:34:58.008Z,9.46
2022-12-15T02:36:28.745Z,8.08
2022-12-15T02:37:51.336Z,7.47
2022-12-15T02:39:12.729Z,8.34
2022-12-15T02:40:34.115Z,8.36
2022-12-15T02:41:55.400Z,8.13
2022-12-15T02:43:16.724Z,7.28
2022-12-15T02:44:46.054Z,7.83
2022-12-15T02:46:11.553Z,7.81
2022-12-15T02:47:57.860Z,7.91
2022-12-15T02:49:25.788Z,7.62
2022-12-15T02:51:00.018Z,7.55
2022-12-15T02:52:27.916Z,7.59
2022-12-15T02:54:04.504Z,7.28
2022-12-15T02:55:52.078Z,7.36
2022-12-15T02:57:25.506Z,12.88
2022-12-15T02:58:50.229Z,8.79
2022-12-15T03:00:12.517Z,7.58
2022-12-15T03:01:39.725Z,8.10
2022-12-15T03:03:01.494Z,8.21
2022-12-15T03:04:22.659Z,11.17
2022-12-15T03:05:44.183Z,10.58
2022-12-15T03:07:08.523Z,11.30
2022-12-15T03:08:29.936Z,8.46
2022-12-15T03:09:51.390Z,8.40
2022-12-15T03:11:12.928Z,8.66
2022-12-15T03:12:34.241Z,9.17
2022-12-15T03:13:55.667Z,9.04
2022-12-15T03:15:17.271Z,8.29
2022-12-15T03:16:41.251Z,8.03
2022-12-15T03:18:02.551Z,9.21
2022-12-15T03:19:24.011Z,8.81
2022-12-15T03:20:45.579Z,11.14
2022-12-15T03:22:06.883Z,8.04
2022-12-15T03:23:28.907Z,8.47
2022-12-15T03:24:50.925Z,10.19
2022-12-15T03:26:12.638Z,8.54
2022-12-15T03:27:35.320Z,11.55
2022-12-15T03:28:56.400Z,9.39
2022-12-15T03:30:18.249Z,8.30
2022-12-15T03:31:40.041Z,7.76
2022-12-15T03:33:01.663Z,7.85
2022-12-15T03:34:24.041Z,7.44
2022-12-15T03:35:45.511Z,6.94
2022-12-15T03:37:07.006Z,7.61
2022-12-15T03:38:28.926Z,8.81
2022-12-15T03:39:50.269Z,6.94
2022-12-15T03:41:11.388Z,6.90
2022-12-15T03:42:33.081Z,7.80
2022-12-15T03:43:55.003Z,7.16
2022-12-15T03:45:23.554Z,6.66
2022-12-15T03:46:44.978Z,7.19
2022-12-15T03:48:06.689Z,6.62
2022-12-15T03:49:28.045Z,7.08
2022-12-15T03:50:50.012Z,6.92
2022-12-15T03:52:11.186Z,7.23
2022-12-15T03:53:33.205Z,6.91
2022-12-15T03:54:54.785Z,7.42
2022-12-15T03:56:16.641Z,7.01
2022-12-15T03:57:39.528Z,7.10
2022-12-15T03:59:01.251Z,7.46
2022-12-15T04:00:23.153Z,8.61
2022-12-15T04:01:46.233Z,7.14
2022-12-15T04:03:08.329Z,7.15
2022-12-15T04:04:30.082Z,7.57
2022-12-15T04:05:51.292Z,7.61
2022-12-15T04:07:12.718Z,8.13
2022-12-15T04:08:34.356Z,8.21
2022-12-15T04:09:56.100Z,7.58
2022-12-15T04:11:17.969Z,7.59
2022-12-15T04:12:39.122Z,8.53
2022-12-15T04:14:00.459Z,7.44
2022-12-15T04:15:22.172Z,7.76
2022-12-15T04:16:44.653Z,8.08
2022-12-15T04:18:07.083Z,7.15
2022-12-15T04:19:29.555Z,7.71
2022-12-15T04:20:51.010Z,7.64
2022-12-15T04:22:17.784Z,6.92
2022-12-15T04:23:37.233Z,8.79
2022-12-15T04:24:58.608Z,10.34
2022-12-15T04:26:20.346Z,9.84
2022-12-15T04:27:41.492Z,13.03
2022-12-15T04:29:03.019Z,15.69
2022-12-15T04:30:24.766Z,17.79
2022-12-15T04:31:46.243Z,10.50
2022-12-15T04:33:10.841Z,9.89
2022-12-15T04:34:32.088Z,9.96
2022-12-15T04:35:54.970Z,7.69
2022-12-15T04:37:17.986Z,8.91
2022-12-15T04:40:02.638Z,8.69
2022-12-15T04:41:23.855Z,8.04
2022-12-15T04:42:50.394Z,8.16
2022-12-15T04:44:11.665Z,7.53
2022-12-15T04:45:35.812Z,8.21
2022-12-15T04:46:58.982Z,8.39
2022-12-15T04:48:20.391Z,7.99
2022-12-15T04:49:42.488Z,5.71
2022-12-15T04:51:04.196Z,7.67
2022-12-15T04:52:25.620Z,7.31
2022-12-15T04:53:47.035Z,7.30
2022-12-15T04:55:08.363Z,7.71
2022-12-15T04:56:30.914Z,8.16
2022-12-15T04:57:52.695Z,7.97
2022-12-15T04:59:14.188Z,8.71
2022-12-15T05:00:36.722Z,15.24
2022-12-15T05:01:57.902Z,14.69
2022-12-15T05:03:25.721Z,10.14
2022-12-15T05:04:46.923Z,13.06
2022-12-15T05:06:10.159Z,8.59
2022-12-15T05:09:17.056Z,8.46
2022-12-15T05:10:38.390Z,10.49
2022-12-15T05:12:00.495Z,9.39
2022-12-15T05:13:22.856Z,11.94
2022-12-15T05:14:45.274Z,13.08
2022-12-15T05:16:09.770Z,13.81
2022-12-15T05:17:34.598Z,11.58
2022-12-15T05:18:57.735Z,10.87
2022-12-15T05:20:19.132Z,12.16
2022-12-15T05:21:42.257Z,11.57
2022-12-15T05:23:03.659Z,11.24
2022-12-15T05:24:27.106Z,18.39
2022-12-15T05:25:50.187Z,8.74
2022-12-15T05:27:11.424Z,8.92
2022-12-15T05:28:36.219Z,13.38
2022-12-15T05:29:57.349Z,8.34
2022-12-15T05:31:20.689Z,8.55
2022-12-15T05:32:42.308Z,9.22
2022-12-15T05:34:09.238Z,8.65
2022-12-15T05:35:31.408Z,13.23
2022-12-15T05:36:53.545Z,16.26
2022-12-15T05:38:19.885Z,11.26
2022-12-15T05:39:43.352Z,8.34
2022-12-15T05:41:05.251Z,7.49
2022-12-15T05:42:34.808Z,8.48
2022-12-15T05:44:07.281Z,9.10
2022-12-15T05:45:38.333Z,7.19
2022-12-15T05:47:01.785Z,7.24
2022-12-15T05:48:24.164Z,7.49
2022-12-15T05:49:45.676Z,8.00
2022-12-15T05:51:07.967Z,7.97
2022-12-15T05:52:36.172Z,8.45
2022-12-15T05:53:57.270Z,7.84
2022-12-15T05:55:19.123Z,8.45
2022-12-15T05:56:40.512Z,9.27
2022-12-15T05:58:03.837Z,7.43
2022-12-15T05:59:27.918Z,7.73
2022-12-15T06:01:10.419Z,7.97
2022-12-15T06:04:16.878Z,8.76
2022-12-15T06:05:49.300Z,8.13
2022-12-15T06:08:29.960Z,8.79
2022-12-15T06:09:51.190Z,8.67
2022-12-15T06:11:13.782Z,8.12
2022-12-15T06:12:36.525Z,7.84
2022-12-15T06:13:57.893Z,8.06
2022-12-15T06:15:20.555Z,8.72
2022-12-15T06:16:50.020Z,8.84
2022-12-15T06:18:06.136Z,9.04
2022-12-15T06:19:27.331Z,7.56
2022-12-15T06:20:52.783Z,7.96
2022-12-15T06:22:14.277Z,7.72
2022-12-15T06:23:35.884Z,7.91
2022-12-15T06:24:58.345Z,7.76
2022-12-15T06:26:26.096Z,8.35
2022-12-15T06:27:47.916Z,8.33
2022-12-15T06:29:12.535Z,8.38
2022-12-15T06:31:45.629Z,8.39
2022-12-15T06:33:06.770Z,8.99
2022-12-15T06:34:28.280Z,8.50
2022-12-15T06:36:01.959Z,9.39
2022-12-15T06:37:23.397Z,9.91
2022-12-15T06:38:45.064Z,9.27
2022-12-15T06:40:10.035Z,8.78
2022-12-15T06:41:31.891Z,8.42
2022-12-15T06:42:53.532Z,8.57
2022-12-15T06:44:15.564Z,7.90
2022-12-15T06:45:36.999Z,8.02
2022-12-15T06:46:58.635Z,8.15
2022-12-15T06:48:21.504Z,7.43
2022-12-15T06:49:44.675Z,8.85
2022-12-15T06:51:16.410Z,29.19
2022-12-15T06:52:32.473Z,14.66
2022-12-15T06:53:54.512Z,9.11
2022-12-15T06:55:15.725Z,9.17
2022-12-15T06:56:38.125Z,9.07
2022-12-15T06:57:59.594Z,16.59
2022-12-15T06:59:20.923Z,15.59
2022-12-15T07:00:43.764Z,8.79
2022-12-15T07:02:04.974Z,8.08
2022-12-15T07:03:29.608Z,8.31
2022-12-15T07:04:51.366Z,8.22
2022-12-15T07:06:15.171Z,7.76
2022-12-15T07:07:36.785Z,7.82
2022-12-15T07:08:57.937Z,7.97
2022-12-15T07:10:20.845Z,7.44
2022-12-15T07:11:44.524Z,8.19
2022-12-15T07:13:08.563Z,7.89
2022-12-15T07:14:30.163Z,8.35
2022-12-15T07:15:52.426Z,8.64
2022-12-15T07:17:15.630Z,7.74
2022-12-15T07:18:37.264Z,7.82
2022-12-15T07:19:58.603Z,8.31
2022-12-15T07:21:21.225Z,9.38
2022-12-15T07:22:42.835Z,8.49
2022-12-15T07:24:07.052Z,7.79
2022-12-15T07:25:28.767Z,6.47
2022-12-15T07:27:58.704Z,8.72
2022-12-15T07:29:23.532Z,8.61
2022-12-15T07:30:43.663Z,8.48
2022-12-15T07:32:05.376Z,8.61
2022-12-15T07:33:26.949Z,8.37
2022-12-15T07:34:48.354Z,8.13
2022-12-15T07:36:09.937Z,8.62
2022-12-15T07:37:31.234Z,8.31
2022-12-15T07:38:59.192Z,9.49
2022-12-15T07:40:21.951Z,9.79
2022-12-15T07:41:43.248Z,9.87
2022-12-15T07:43:04.985Z,9.31
2022-12-15T07:44:26.456Z,7.81
2022-12-15T07:45:52.134Z,8.37
2022-12-15T07:47:13.689Z,8.58
2022-12-15T07:48:35.079Z,8.43
2022-12-15T07:49:57.350Z,9.65
2022-12-15T07:51:20.188Z,9.16
2022-12-15T07:52:42.065Z,8.68
2022-12-15T07:54:04.210Z,8.88
2022-12-15T07:55:43.635Z,9.10
2022-12-15T07:56:51.110Z,8.61
2022-12-15T07:58:12.235Z,9.46
2022-12-15T07:59:33.537Z,8.77
2022-12-15T08:00:58.885Z,9.41
2022-12-15T08:02:20.599Z,9.06
2022-12-15T08:03:42.000Z,8.46
2022-12-15T08:05:03.597Z,8.91
2022-12-15T08:06:24.858Z,8.83
2022-12-15T08:07:46.185Z,8.74
2022-12-15T08:09:07.803Z,9.22
2022-12-15T08:10:29.077Z,9.25
2022-12-15T08:11:50.136Z,9.06
2022-12-15T08:13:25.984Z,8.64
2022-12-15T08:14:35.994Z,9.01
2022-12-15T08:15:57.518Z,8.98
2022-12-15T08:17:19.064Z,10.27
2022-12-15T08:18:41.460Z,9.67
2022-12-15T08:20:09.637Z,9.36
2022-12-15T08:21:27.155Z,9.21
2022-12-15T08:22:52.746Z,9.24
2022-12-15T08:24:16.445Z,9.24
2022-12-15T08:25:37.836Z,9.32
2022-12-15T08:26:59.433Z,10.47
2022-12-15T08:28:20.960Z,12.57
2022-12-15T08:29:51.443Z,11.60
2022-12-15T08:32:59.014Z,11.99
2022-12-15T08:39:28.161Z,12.22
2022-12-15T08:41:11.758Z,11.46
2022-12-15T08:42:35.697Z,14.62
2022-12-15T08:43:57.895Z,8.54
2022-12-15T08:45:19.311Z,10.07
2022-12-15T08:46:40.655Z,10.19
2022-12-15T08:48:01.988Z,9.89
2022-12-15T08:49:24.322Z,8.94
2022-12-15T08:50:46.560Z,8.69
2022-12-15T08:52:08.063Z,9.21
2022-12-15T08:53:31.868Z,9.52
2022-12-15T08:56:33.076Z,8.89
2022-12-15T08:57:54.239Z,8.89
2022-12-15T08:59:16.207Z,8.96
2022-12-15T09:00:37.664Z,10.06
2022-12-15T09:01:58.871Z,10.17
2022-12-15T09:03:22.965Z,9.38
2022-12-15T09:04:44.396Z,9.39
2022-12-15T09:06:08.028Z,8.97
2022-12-15T09:07:30.436Z,9.52
2022-12-15T09:09:00.348Z,9.56
2022-12-15T09:10:22.701Z,8.83
2022-12-15T09:11:45.492Z,10.22
2022-12-15T09:13:06.772Z,9.92
2022-12-15T09:14:29.618Z,10.42
2022-12-15T09:16:17.341Z,10.72
2022-12-15T09:17:45.816Z,10.89
2022-12-15T09:19:13.525Z,10.25
2022-12-15T09:21:59.828Z,10.98
2022-12-15T09:23:21.630Z,11.34
2022-12-15T09:24:43.650Z,12.13
2022-12-15T09:26:07.267Z,12.24
2022-12-15T09:27:29.772Z,12.15
2022-12-15T09:28:51.387Z,17.52
2022-12-15T09:30:16.500Z,18.64
2022-12-15T09:31:45.444Z,12.26
2022-12-15T09:33:12.818Z,11.62
2022-12-15T09:34:35.270Z,9.99
2022-12-15T09:36:01.718Z,10.91
2022-12-15T09:37:22.800Z,11.33
2022-12-15T09:38:44.466Z,10.39
2022-12-15T09:54:34.686Z,10.41
2022-12-15T12:35:30.626Z,11.08
2022-12-15T12:38:11.369Z,10.07
2022-12-15T12:39:32.786Z,11.97
2022-12-15T12:41:15.140Z,10.78
2022-12-15T12:42:41.688Z,11.08
2022-12-15T12:45:47.863Z,11.01
2022-12-15T12:47:14.804Z,11.34
2022-12-15T12:48:45.665Z,10.78
2022-12-15T12:50:16.335Z,11.38
2022-12-15T12:51:39.552Z,10.78
2022-12-15T12:53:01.540Z,10.38
2022-12-15T12:54:35.719Z,11.09
2022-12-15T12:55:57.343Z,11.59
2022-12-15T12:57:40.745Z,11.66
2022-12-15T12:59:23.391Z,11.82
2022-12-15T13:00:53.725Z,10.54
2022-12-15T13:02:24.773Z,10.90
2022-12-15T13:03:49.546Z,11.98
2022-12-15T13:05:33.818Z,12.20
2022-12-15T13:07:01.051Z,10.92
2022-12-15T13:08:32.971Z,12.09
2022-12-15T13:10:12.437Z,12.31
2022-12-15T13:11:55.542Z,11.73
2022-12-15T13:13:31.827Z,11.36
2022-12-15T13:15:02.421Z,11.31
2022-12-15T13:16:30.802Z,12.06
2022-12-15T13:17:54.947Z,12.09
2022-12-15T13:20:31.190Z,12.29
2022-12-15T13:21:54.089Z,11.10
2022-12-15T13:23:25.944Z,11.62
2022-12-15T13:24:51.759Z,10.55
2022-12-15T13:26:19.973Z,12.42
2022-12-15T13:27:41.567Z,11.54
2022-12-15T13:29:06.054Z,12.95
2022-12-15T13:30:34.035Z,10.77
2022-12-15T13:31:58.923Z,10.13
2022-12-15T13:33:26.215Z,10.80
2022-12-15T13:34:52.028Z,10.94
2022-12-15T13:36:34.600Z,11.67
2022-12-15T13:39:57.278Z,10.53
2022-12-15T13:41:24.887Z,11.41
2022-12-15T13:42:56.293Z,12.74
2022-12-15T13:44:25.397Z,14.16
2022-12-15T13:45:50.985Z,11.43
2022-12-15T13:47:25.973Z,10.76
2022-12-15T13:50:14.318Z,9.72
2022-12-15T13:51:37.860Z,9.63
2022-12-15T13:56:07.524Z,10.14
2022-12-15T13:57:29.150Z,10.65
2022-12-15T13:58:54.659Z,9.80
2022-12-15T14:00:16.008Z,10.42
2022-12-15T14:01:37.158Z,10.11
2022-12-15T14:03:05.341Z,10.68
2022-12-15T14:04:26.486Z,10.46
2022-12-15T14:05:52.431Z,10.47
2022-12-15T14:07:13.447Z,10.77
2022-12-15T14:08:34.937Z,10.86
2022-12-15T14:09:56.527Z,10.05
2022-12-15T14:11:50.799Z,10.33
2022-12-15T14:12:44.913Z,10.72
2022-12-15T14:14:08.531Z,10.93
2022-12-15T14:15:43.688Z,11.14
2022-12-15T14:18:30.116Z,12.38
2022-12-15T14:19:51.534Z,12.59
2022-12-15T14:22:35.279Z,11.89
2022-12-15T14:24:37.530Z,10.71
2022-12-15T14:25:29.062Z,10.93
2022-12-15T14:26:50.809Z,10.89
2022-12-15T14:28:26.943Z,9.93
2022-12-15T14:29:48.276Z,10.39
2022-12-15T14:31:16.013Z,11.26
2022-12-15T14:32:37.687Z,9.74
2022-12-15T14:34:23.390Z,10.23
2022-12-15T14:35:49.520Z,8.92
2022-12-15T14:37:11.856Z,9.95
2022-12-15T14:38:43.357Z,8.93
2022-12-15T14:40:05.788Z,8.28
2022-12-15T14:41:28.198Z,9.29
2022-12-15T14:44:37.808Z,8.99
2022-12-15T14:46:18.445Z,10.42
2022-12-15T14:47:40.686Z,10.37
2022-12-15T14:49:06.862Z,9.54
2022-12-15T14:50:29.137Z,10.43
2022-12-15T14:51:51.794Z,9.62
2022-12-15T14:54:38.817Z,10.23
2022-12-15T14:57:51.495Z,13.01
2022-12-15T14:59:19.183Z,13.50
2022-12-15T15:02:35.420Z,13.87
2022-12-15T15:04:05.664Z,13.16
2022-12-15T15:06:52.295Z,13.54
2022-12-15T15:08:36.507Z,14.93
2022-12-15T15:09:59.133Z,15.03
2022-12-15T15:11:26.682Z,12.95
2022-12-15T15:12:48.225Z,16.17
2022-12-15T15:14:22.705Z,15.82
2022-12-15T15:18:24.733Z,14.29
2022-12-15T15:21:26.022Z,17.27
2022-12-15T15:23:09.562Z,18.57
2022-12-15T15:24:35.488Z,17.13
2022-12-15T15:26:06.416Z,17.23
2022-12-15T15:27:34.550Z,15.07
2022-12-15T15:28:56.103Z,15.32
2022-12-15T15:30:20.883Z,14.55
2022-12-15T15:31:42.460Z,14.79
2022-12-15T15:33:03.815Z,12.51
2022-12-15T15:34:25.669Z,13.74
2022-12-15T15:35:50.425Z,14.07
2022-12-15T15:37:21.923Z,13.98
2022-12-15T15:38:44.033Z,13.05
2022-12-15T15:40:13.461Z,12.74
2022-12-15T15:41:35.236Z,13.35
2022-12-15T15:43:05.802Z,13.02
2022-12-15T15:44:27.521Z,13.64
2022-12-15T15:47:04.766Z,10.28
2022-12-15T15:48:28.179Z,12.00
2022-12-15T15:49:50.972Z,12.02
2022-12-15T15:51:12.793Z,12.47
2022-12-15T15:52:51.539Z,13.12
2022-12-15T15:54:14.575Z,12.40
2022-12-15T15:55:39.552Z,12.84
2022-12-15T15:57:00.029Z,13.04
2022-12-15T15:58:21.453Z,13.15
2022-12-15T15:59:44.049Z,14.15
2022-12-15T16:01:13.087Z,14.62
2022-12-15T16:02:31.996Z,13.89
2022-12-15T16:03:53.505Z,13.52
2022-12-15T16:05:15.286Z,15.22
2022-12-15T16:06:39.686Z,13.51
2022-12-15T16:08:00.663Z,14.91
2022-12-15T16:09:21.981Z,15.12
2022-12-15T16:10:44.979Z,15.60
2022-12-15T16:12:09.461Z,13.22
2022-12-15T16:13:30.765Z,14.97
2022-12-15T16:14:53.275Z,13.30
2022-12-15T16:16:22.466Z,13.36
2022-12-15T16:17:44.178Z,14.47
2022-12-15T16:19:05.755Z,15.40
2022-12-15T16:20:28.477Z,20.22
2022-12-15T16:21:49.816Z,17.96
2022-12-15T16:23:16.821Z,16.67
2022-12-15T16:24:38.995Z,18.06
2022-12-15T16:26:00.587Z,18.67
2022-12-15T16:27:22.097Z,19.78
2022-12-15T16:28:43.488Z,21.47
2022-12-15T16:31:41.023Z,21.85
2022-12-15T16:32:58.328Z,20.47
2022-12-15T16:34:22.882Z,19.39
2022-12-15T16:35:44.157Z,16.77
2022-12-15T16:37:05.737Z,17.21
2022-12-15T16:38:32.152Z,15.52
2022-12-15T16:39:53.503Z,14.97
2022-12-15T16:41:15.912Z,14.06
2022-12-15T16:42:37.535Z,14.42
2022-12-15T16:44:02.295Z,15.42
2022-12-15T16:45:24.689Z,14.86
2022-12-15T16:46:46.224Z,18.62
2022-12-15T16:48:07.601Z,17.37
2022-12-15T16:49:39.622Z,17.10
2022-12-15T16:51:28.399Z,16.90
2022-12-15T16:52:50.433Z,17.00
2022-12-15T16:54:17.652Z,16.51
2022-12-15T16:55:40.234Z,15.58
2022-12-15T16:57:02.315Z,14.71
2022-12-15T16:58:24.031Z,15.21
2022-12-15T16:59:50.355Z,15.21
2022-12-15T17:01:11.836Z,15.55
2022-12-15T17:02:35.035Z,15.49
2022-12-15T17:03:56.663Z,14.98
2022-12-15T17:05:18.354Z,15.87
2022-12-15T17:06:39.971Z,13.92
2022-12-15T17:08:04.359Z,11.20
2022-12-15T17:09:25.408Z,13.69
2022-12-15T17:10:48.099Z,14.34
2022-12-15T17:12:13.778Z,13.03
2022-12-15T17:13:43.568Z,13.61
2022-12-15T17:15:00.018Z,12.04
2022-12-15T17:16:23.116Z,13.30
2022-12-15T17:17:44.361Z,13.18
2022-12-15T17:19:05.427Z,14.61
2022-12-15T17:20:29.454Z,18.45
2022-12-15T17:21:53.038Z,17.53
2022-12-15T17:23:20.006Z,16.53
2022-12-15T17:24:41.735Z,16.27
2022-12-15T17:26:25.868Z,16.58
2022-12-15T17:28:37.622Z,22.46
2022-12-15T17:29:58.976Z,20.98
2022-12-15T17:31:22.332Z,22.12
2022-12-15T17:32:44.031Z,22.38
2022-12-15T17:34:26.399Z,24.29
2022-12-15T17:35:49.545Z,22.88
2022-12-15T17:37:12.941Z,22.70
2022-12-15T17:38:34.393Z,23.02
2022-12-15T17:39:55.915Z,22.02
2022-12-15T17:41:35.403Z,20.54
2022-12-15T17:42:41.667Z,18.39
2022-12-15T17:44:31.574Z,15.91
2022-12-15T17:45:27.688Z,15.27
2022-12-15T17:46:49.153Z,14.88
2022-12-15T17:48:11.211Z,14.32
2022-12-15T17:49:36.188Z,16.01
2022-12-15T17:50:55.673Z,15.02
2022-12-15T17:52:26.282Z,15.28
2022-12-15T17:53:48.229Z,14.38
2022-12-15T17:56:37.743Z,14.66
2022-12-15T17:57:59.593Z,16.96
2022-12-15T17:59:21.165Z,16.39
2022-12-15T18:00:48.923Z,18.39
2022-12-15T18:02:07.654Z,19.01
2022-12-15T18:03:34.664Z,16.72
2022-12-15T18:04:56.070Z,16.59
2022-12-15T18:06:17.844Z,16.10
2022-12-15T18:07:39.178Z,15.64
2022-12-15T18:09:02.057Z,16.44
2022-12-15T18:10:34.623Z,14.99
2022-12-15T18:11:55.862Z,15.96
2022-12-15T18:13:19.505Z,15.29
2022-12-15T18:14:40.950Z,17.31
2022-12-15T18:16:02.097Z,15.74
2022-12-15T18:17:23.632Z,14.59
2022-12-15T18:18:44.760Z,15.11
2022-12-15T18:20:08.041Z,15.02
2022-12-15T18:21:29.559Z,14.03
2022-12-15T18:22:52.332Z,14.28
2022-12-15T18:24:16.866Z,14.26
2022-12-15T18:25:38.044Z,14.16
2022-12-15T18:26:59.528Z,13.99
2022-12-15T18:28:25.764Z,14.95
2022-12-15T18:29:47.015Z,14.19
2022-12-15T18:31:15.008Z,14.49
2022-12-15T18:32:36.314Z,15.25
2022-12-15T18:34:04.004Z,14.37
2022-12-15T18:36:43.253Z,18.09
2022-12-15T18:38:23.932Z,25.23
2022-12-15T18:39:45.458Z,22.69
2022-12-15T18:41:09.158Z,22.79
2022-12-15T18:42:30.504Z,23.60
2022-12-15T18:43:52.059Z,19.19
2022-12-15T18:45:18.695Z,19.07
2022-12-15T18:46:46.203Z,19.43
2022-12-15T18:48:05.602Z,23.28
2022-12-15T18:49:26.878Z,28.33
2022-12-15T18:50:50.002Z,23.66
2022-12-15T18:53:34.439Z,22.66
2022-12-15T18:54:56.579Z,24.62
2022-12-15T18:56:18.603Z,26.41
2022-12-15T18:57:39.899Z,25.83
2022-12-15T18:59:00.917Z,26.42
2022-12-15T19:00:26.309Z,25.92
2022-12-15T19:01:47.892Z,22.48
2022-12-15T19:03:09.817Z,25.11
2022-12-15T19:04:31.069Z,26.44
2022-12-15T19:06:04.197Z,24.11
2022-12-15T19:07:25.424Z,22.79
2022-12-15T19:08:47.283Z,25.22
2022-12-15T19:10:12.996Z,25.15
2022-12-15T19:11:34.496Z,26.81
2022-12-15T19:12:58.754Z,25.09
2022-12-15T19:15:39.698Z,25.08
2022-12-15T19:17:00.954Z,24.12
2022-12-15T19:18:23.172Z,23.58
2022-12-15T19:19:44.503Z,24.01
2022-12-15T19:21:20.406Z,23.51
2022-12-15T19:22:42.393Z,23.51
2022-12-15T19:25:25.941Z,31.37
2022-12-15T19:26:46.324Z,33.31
2022-12-15T19:28:13.643Z,30.46
2022-12-15T19:29:34.962Z,33.01
2022-12-15T19:30:56.009Z,29.62
2022-12-15T19:32:17.505Z,30.38
2022-12-15T19:33:38.592Z,23.48
2022-12-15T19:35:02.473Z,25.52
2022-12-15T19:36:23.916Z,22.41
2022-12-15T19:37:45.331Z,21.84
2022-12-15T19:39:07.077Z,21.86
2022-12-15T19:40:29.803Z,24.81
2022-12-15T19:41:51.342Z,27.66
2022-12-15T19:43:14.795Z,23.16
2022-12-15T19:44:36.167Z,17.21
2022-12-15T19:45:57.740Z,19.78
2022-12-15T19:47:19.277Z,17.95
2022-12-15T19:48:40.239Z,15.71
2022-12-15T19:50:01.305Z,17.02
2022-12-15T19:51:23.006Z,16.67
2022-12-15T19:52:45.675Z,15.84
2022-12-15T19:54:08.242Z,15.86
2022-12-15T19:55:30.490Z,15.77
2022-12-15T19:56:53.271Z,15.19
2022-12-15T19:59:40.372Z,12.82
2022-12-15T20:01:07.946Z,15.57
2022-12-15T20:02:29.511Z,14.76
2022-12-15T20:03:51.465Z,15.11
2022-12-15T20:05:12.842Z,14.80
2022-12-15T20:06:34.673Z,14.47
2022-12-15T20:07:56.169Z,14.35
2022-12-15T20:09:18.357Z,15.04
2022-12-15T20:10:39.725Z,13.99
2022-12-15T20:12:00.911Z,15.37
2022-12-15T20:13:22.466Z,13.62
2022-12-15T20:14:44.589Z,15.46
2022-12-15T20:16:07.785Z,16.18
2022-12-15T20:17:29.492Z,16.17
2022-12-15T20:18:52.750Z,14.90
2022-12-15T20:20:16.758Z,14.64
2022-12-15T20:21:38.721Z,14.76
2022-12-15T20:23:03.048Z,14.82
2022-12-15T20:24:24.162Z,14.44
2022-12-15T20:25:45.172Z,16.89
2022-12-15T20:27:15.040Z,16.33
2022-12-15T20:28:36.103Z,15.59
2022-12-15T20:29:57.376Z,15.13
2022-12-15T20:31:20.333Z,15.62
2022-12-15T20:32:41.864Z,15.23
2022-12-15T20:34:02.775Z,14.76
2022-12-15T20:35:23.790Z,14.46
2022-12-15T20:36:44.941Z,15.66
2022-12-15T20:38:24.000Z,16.07
2022-12-15T20:39:45.146Z,14.27
2022-12-15T20:41:06.243Z,13.59
2022-12-15T20:42:27.504Z,16.08
2022-12-15T20:43:48.946Z,14.07
2022-12-15T20:45:15.129Z,15.60
2022-12-15T20:46:36.631Z,14.55
2022-12-15T20:49:13.896Z,14.87
2022-12-15T20:50:37.374Z,14.06
2022-12-15T20:53:21.205Z,13.52
2022-12-15T20:54:42.231Z,12.19
2022-12-15T20:56:04.105Z,14.55
2022-12-15T20:57:25.295Z,14.42
2022-12-15T20:58:46.325Z,14.99
2022-12-15T21:00:08.878Z,15.31
2022-12-15T21:01:32.655Z,14.59
2022-12-15T21:02:55.212Z,14.18
2022-12-15T21:05:46.600Z,14.21
2022-12-15T21:07:09.183Z,14.52
2022-12-15T21:08:30.735Z,14.52
2022-12-15T21:09:52.074Z,14.27
2022-12-15T21:11:18.034Z,14.81
2022-12-15T21:12:39.901Z,14.49
2022-12-15T21:14:00.960Z,15.45
2022-12-15T21:15:22.745Z,14.72
2022-12-15T21:16:44.352Z,15.07
2022-12-15T21:18:46.630Z,15.23
2022-12-15T21:19:29.549Z,14.42
2022-12-15T21:20:52.290Z,15.31
2022-12-15T21:22:19.101Z,15.62
2022-12-15T21:23:42.844Z,14.95
2022-12-15T21:26:25.067Z,14.17
2022-12-15T21:27:46.120Z,14.42
2022-12-15T21:29:15.350Z,15.01
2022-12-15T21:30:37.111Z,14.86
2022-12-15T21:33:07.511Z,14.19
2022-12-15T21:34:29.132Z,14.16
2022-12-15T21:35:50.636Z,14.39
2022-12-15T21:37:27.143Z,13.71
2022-12-15T21:38:49.207Z,13.81
2022-12-15T21:41:27.603Z,13.23
2022-12-15T21:42:49.281Z,13.25
2022-12-15T21:45:23.353Z,10.69
2022-12-15T21:46:44.645Z,12.84
2022-12-15T21:48:07.604Z,13.16
2022-12-15T21:49:28.563Z,12.73
2022-12-15T21:50:49.804Z,12.77
2022-12-15T21:52:13.159Z,12.22
2022-12-15T21:53:34.739Z,12.97
2022-12-15T21:54:55.729Z,12.33
2022-12-15T21:56:17.632Z,12.74
2022-12-15T21:57:39.012Z,12.46
2022-12-15T21:59:00.784Z,12.01
2022-12-15T22:00:22.761Z,12.23
2022-12-15T22:01:45.810Z,12.42
2022-12-15T22:03:08.591Z,11.98
2022-12-15T22:05:51.714Z,11.95
2022-12-15T22:07:13.843Z,12.31
2022-12-15T22:08:35.802Z,13.02
2022-12-15T22:09:57.175Z,10.97
2022-12-15T22:11:23.901Z,11.94
2022-12-15T22:12:59.066Z,13.23
2022-12-15T22:14:26.907Z,13.21
2022-12-15T22:15:48.670Z,12.71
2022-12-15T22:17:13.547Z,11.86
2022-12-15T22:18:35.219Z,11.06
2022-12-15T22:19:56.685Z,11.32
2022-12-15T22:21:17.585Z,11.68